Time;durP1;ratioP1;P1;durP2;ratioP2;P2;SDS_P1;SDS_P2;PMS_P1;PMS_P2;Temp;Humidity;BMP_temperature;BMP_pressure;BME280_temperature;BME280_humidity;BME280_pressure;Samples;Min_cycle;Max_cycle;Signal;HPM_P1;HPM_P2
2023/08/31 00:00:04;;;;;;;3.00;1.10;;;;;;;;;;6271837;28;20053;-78
2023/08/31 00:03:06;;;;;;;2.92;1.60;;;;;;;;;;6278063;28;20253;-77
2023/08/31 00:06:08;;;;;;;2.80;1.20;;;;;;;;;;6276923;28;20045;-78
2023/08/31 00:09:10;;;;;;;3.30;1.15;;;;;;;;;;6276252;28;20054;-78
2023/08/31 00:12:15;;;;;;;4.60;1.52;;;;;;;;;;6275328;28;20242;-78
2023/08/31 00:15:18;;;;;;;2.72;1.30;;;;;;;;;;6271959;28;20207;-77
2023/08/31 00:18:20;;;;;;;2.05;1.20;;;;;;;;;;6273108;28;20044;-77
2023/08/31 00:21:23;;;;;;;3.97;1.10;;;;;;;;;;6278106;28;20053;-78
2023/08/31 00:24:29;;;;;;;3.40;1.13;;;;;;;;;;6271390;28;20060;-77
2023/08/31 00:27:34;;;;;;;2.70;1.45;;;;;;;;;;6274300;28;20057;-77
2023/08/31 00:30:37;;;;;;;2.08;1.30;;;;;;;;;;6275181;28;20049;-78
2023/08/31 00:33:40;;;;;;;4.78;1.88;;;;;;;;;;6275483;28;20367;-77
2023/08/31 00:36:41;;;;;;;4.43;1.48;;;;;;;;;;6274778;28;20045;-77
2023/08/31 00:39:43;;;;;;;2.55;1.30;;;;;;;;;;6276773;28;20059;-77
2023/08/31 00:42:46;;;;;;;3.22;1.38;;;;;;;;;;6278553;28;20049;-77
2023/08/31 00:45:50;;;;;;;3.08;1.50;;;;;;;;;;6276469;28;20064;-78
2023/08/31 00:48:52;;;;;;;4.80;1.50;;;;;;;;;;6272736;28;20062;-77
2023/08/31 00:51:57;;;;;;;3.00;1.40;;;;;;;;;;6272694;28;20057;-77
2023/08/31 00:54:59;;;;;;;3.80;1.40;;;;;;;;;;6273068;28;20595;-78
2023/08/31 00:58:05;;;;;;;2.25;1.20;;;;;;;;;;6274746;28;20052;-77
2023/08/31 01:01:13;;;;;;;3.97;1.50;;;;;;;;;;6273004;28;20052;-78
2023/08/31 01:04:22;;;;;;;3.25;1.30;;;;;;;;;;6270949;28;20057;-77
2023/08/31 01:07:31;;;;;;;5.05;1.38;;;;;;;;;;6275791;28;20217;-77
2023/08/31 01:10:41;;;;;;;1.95;0.95;;;;;;;;;;6272672;28;20056;-78
2023/08/31 01:13:46;;;;;;;2.28;1.00;;;;;;;;;;6274013;28;20053;-78
2023/08/31 01:16:50;;;;;;;3.15;1.13;;;;;;;;;;6273232;28;20051;-78
2023/08/31 01:19:54;;;;;;;3.05;1.30;;;;;;;;;;6275349;28;20061;-77
2023/08/31 01:23:00;;;;;;;1.92;1.13;;;;;;;;;;6272287;28;20226;-77
2023/08/31 01:26:06;;;;;;;1.98;1.10;;;;;;;;;;6276992;28;20053;-78
2023/08/31 01:29:08;;;;;;;5.03;1.60;;;;;;;;;;6264527;28;20349;-78
2023/08/31 01:32:13;;;;;;;1.85;1.20;;;;;;;;;;6271500;28;20228;-77
2023/08/31 01:35:18;;;;;;;4.43;1.25;;;;;;;;;;6275813;28;20121;-77
2023/08/31 01:38:25;;;;;;;2.20;1.42;;;;;;;;;;6274418;28;20740;-77
2023/08/31 01:41:30;;;;;;;3.53;1.50;;;;;;;;;;6273369;28;20061;-77
2023/08/31 01:44:32;;;;;;;2.80;1.20;;;;;;;;;;6270586;28;20051;-78
2023/08/31 01:47:34;;;;;;;3.55;1.40;;;;;;;;;;6274551;28;20078;-77
2023/08/31 01:50:36;;;;;;;2.13;1.23;;;;;;;;;;6275464;28;20041;-77
2023/08/31 01:53:38;;;;;;;2.65;1.40;;;;;;;;;;6272084;28;20056;-77
2023/08/31 01:56:41;;;;;;;2.55;1.10;;;;;;;;;;6272719;28;20265;-77
2023/08/31 01:59:42;;;;;;;2.40;1.00;;;;;;;;;;6273150;28;20045;-78
2023/08/31 02:02:44;;;;;;;4.40;1.40;;;;;;;;;;6274369;28;20071;-78
2023/08/31 02:05:46;;;;;;;2.70;1.15;;;;;;;;;;6273478;28;20064;-78
2023/08/31 02:08:48;;;;;;;3.65;1.33;;;;;;;;;;6272412;28;20057;-78
2023/08/31 02:11:52;;;;;;;3.33;1.40;;;;;;;;;;6270528;28;20045;-79
2023/08/31 02:14:55;;;;;;;2.63;1.30;;;;;;;;;;6274697;28;20049;-78
2023/08/31 02:17:57;;;;;;;5.35;1.30;;;;;;;;;;6273376;28;20061;-78
2023/08/31 02:21:03;;;;;;;3.03;1.40;;;;;;;;;;6271679;28;20055;-78
2023/08/31 02:24:06;;;;;;;2.33;1.17;;;;;;;;;;6271596;28;20240;-78
2023/08/31 02:27:09;;;;;;;2.45;1.23;;;;;;;;;;6266696;28;20048;-78
2023/08/31 02:30:11;;;;;;;2.92;1.42;;;;;;;;;;6272319;28;20046;-77
2023/08/31 02:33:13;;;;;;;1.52;1.10;;;;;;;;;;6273836;28;20057;-79
2023/08/31 02:36:15;;;;;;;3.45;1.38;;;;;;;;;;6273391;28;20068;-78
2023/08/31 02:39:17;;;;;;;4.47;1.83;;;;;;;;;;6274417;28;20056;-77
2023/08/31 02:42:20;;;;;;;2.53;1.15;;;;;;;;;;6268177;28;20052;-77
2023/08/31 02:45:22;;;;;;;1.88;1.08;;;;;;;;;;6274244;28;20053;-78
2023/08/31 02:48:24;;;;;;;3.10;1.17;;;;;;;;;;6275870;28;20052;-79
2023/08/31 02:51:26;;;;;;;3.10;1.45;;;;;;;;;;6268982;28;20063;-77
2023/08/31 02:54:28;;;;;;;4.15;1.55;;;;;;;;;;6269699;28;20237;-78
2023/08/31 02:57:31;;;;;;;4.32;1.40;;;;;;;;;;6271017;28;20062;-79
2023/08/31 03:00:33;;;;;;;;;;;;;;;;;;6272364;28;20052;-78
2023/08/31 03:03:35;;;;;;;2.25;1.13;;;;;;;;;;6269098;28;20201;-79
2023/08/31 03:06:37;;;;;;;3.20;1.15;;;;;;;;;;6271970;28;20044;-78
2023/08/31 03:09:39;;;;;;;6.68;1.50;;;;;;;;;;6274298;28;20053;-77
2023/08/31 03:12:42;;;;;;;1.73;1.20;;;;;;;;;;6269985;28;20045;-78
2023/08/31 03:15:44;;;;;;;3.03;1.17;;;;;;;;;;6274819;28;20044;-78
2023/08/31 03:18:46;;;;;;;1.67;1.13;;;;;;;;;;6270285;28;20044;-78
2023/08/31 03:21:47;;;;;;;5.43;1.50;;;;;;;;;;6272570;28;20061;-77
2023/08/31 03:24:49;;;;;;;2.35;1.60;;;;;;;;;;6271525;28;20045;-78
2023/08/31 03:27:52;;;;;;;4.47;1.50;;;;;;;;;;6270589;28;20079;-78
2023/08/31 03:31:01;;;;;;;2.83;1.70;;;;;;;;;;6269543;28;20056;-78
2023/08/31 03:34:02;;;;;;;4.13;1.75;;;;;;;;;;6269231;28;20041;-77
2023/08/31 03:37:05;;;;;;;3.70;2.13;;;;;;;;;;6272722;28;20082;-77
2023/08/31 03:40:09;;;;;;;3.90;1.58;;;;;;;;;;6279833;28;21503;-78
2023/08/31 03:43:12;;;;;;;2.95;1.80;;;;;;;;;;6276813;28;20230;-77
2023/08/31 03:46:14;;;;;;;5.32;1.58;;;;;;;;;;6277793;28;20057;-77
2023/08/31 03:49:16;;;;;;;3.40;1.50;;;;;;;;;;6276807;28;20090;-77
2023/08/31 03:52:18;;;;;;;4.88;1.73;;;;;;;;;;6274812;28;20107;-78
2023/08/31 03:55:19;;;;;;;4.82;1.90;;;;;;;;;;6278875;28;20068;-77
2023/08/31 03:58:23;;;;;;;5.22;2.00;;;;;;;;;;6275563;28;20059;-77
2023/08/31 04:01:25;;;;;;;4.43;2.10;;;;;;;;;;6273752;28;20130;-79
2023/08/31 04:04:27;;;;;;;3.70;2.00;;;;;;;;;;6272820;28;20280;-77
2023/08/31 04:07:28;;;;;;;6.35;2.42;;;;;;;;;;6273037;28;20063;-78
2023/08/31 04:10:31;;;;;;;5.18;3.00;;;;;;;;;;6272454;28;20103;-79
2023/08/31 04:13:34;;;;;;;5.38;3.17;;;;;;;;;;6274609;28;20112;-78
2023/08/31 04:16:36;;;;;;;5.30;2.72;;;;;;;;;;6277909;28;20051;-77
2023/08/31 04:19:38;;;;;;;4.50;3.00;;;;;;;;;;6277461;28;20048;-79
2023/08/31 04:22:40;;;;;;;5.43;3.13;;;;;;;;;;6274088;28;20693;-78
2023/08/31 04:25:42;;;;;;;6.32;3.55;;;;;;;;;;6276263;28;20098;-79
2023/08/31 04:28:46;;;;;;;4.63;3.35;;;;;;;;;;6280007;28;20782;-77
2023/08/31 04:31:48;;;;;;;6.50;2.90;;;;;;;;;;6274751;28;20352;-78
2023/08/31 04:34:50;;;;;;;7.22;3.20;;;;;;;;;;6276819;28;20237;-77
2023/08/31 04:37:52;;;;;;;7.38;3.53;;;;;;;;;;6274267;28;20326;-79
2023/08/31 04:40:54;;;;;;;5.30;4.20;;;;;;;;;;6273059;28;20080;-77
2023/08/31 04:43:57;;;;;;;4.75;3.65;;;;;;;;;;6275407;28;20120;-77
2023/08/31 04:46:59;;;;;;;4.20;3.00;;;;;;;;;;6274874;28;20064;-77
2023/08/31 04:50:01;;;;;;;6.53;3.22;;;;;;;;;;6275907;28;20115;-78
2023/08/31 04:53:04;;;;;;;5.57;3.40;;;;;;;;;;6273020;28;20053;-78
2023/08/31 04:56:08;;;;;;;5.25;3.40;;;;;;;;;;6272076;28;20064;-77
2023/08/31 04:59:11;;;;;;;3.97;3.05;;;;;;;;;;6274727;28;20072;-77
2023/08/31 05:02:13;;;;;;;9.15;3.83;;;;;;;;;;6272970;28;20064;-77
2023/08/31 05:05:15;;;;;;;4.63;3.25;;;;;;;;;;6274146;28;20222;-77
2023/08/31 05:08:17;;;;;;;5.72;3.40;;;;;;;;;;6260932;28;20056;-77
2023/08/31 05:11:19;;;;;;;5.43;3.38;;;;;;;;;;6275533;28;20061;-79
2023/08/31 05:14:22;;;;;;;5.57;3.30;;;;;;;;;;6265471;28;20055;-79
2023/08/31 05:17:24;;;;;;;7.70;3.33;;;;;;;;;;6283591;28;20056;-79
2023/08/31 05:20:35;;;;;;;5.43;3.50;;;;;;;;;;6272383;28;20114;-81
2023/08/31 05:23:37;;;;;;;4.00;2.97;;;;;;;;;;6277101;28;20072;-79
2023/08/31 05:26:40;;;;;;;4.60;3.47;;;;;;;;;;6273814;28;20300;-79
2023/08/31 05:29:43;;;;;;;6.00;3.70;;;;;;;;;;6276752;28;20053;-78
2023/08/31 05:32:45;;;;;;;6.25;3.67;;;;;;;;;;6275660;28;20046;-79
2023/08/31 05:35:47;;;;;;;6.88;3.90;;;;;;;;;;6273723;28;20049;-78
2023/08/31 05:38:49;;;;;;;6.55;3.50;;;;;;;;;;6273631;28;20071;-78
2023/08/31 05:41:51;;;;;;;5.95;3.38;;;;;;;;;;6273842;28;20112;-79
2023/08/31 05:44:55;;;;;;;6.05;3.50;;;;;;;;;;6271373;28;20084;-78
2023/08/31 05:47:57;;;;;;;3.75;2.70;;;;;;;;;;6269782;28;20052;-78
2023/08/31 05:50:58;;;;;;;6.68;3.70;;;;;;;;;;6272996;28;20056;-78
2023/08/31 05:54:01;;;;;;;6.45;3.03;;;;;;;;;;6272778;28;20515;-79
2023/08/31 05:57:06;;;;;;;7.25;3.72;;;;;;;;;;6276456;28;20058;-79
2023/08/31 06:00:50;;;;;;;5.75;3.85;;;;;;;;;;6271655;28;20321;-79
2023/08/31 06:08:15;;;;;;;6.50;3.67;;;;;;;;;;6145019;28;20053;-78
2023/08/31 06:11:19;;;;;;;6.72;3.15;;;;;;;;;;6193243;28;20042;-78
2023/08/31 06:14:21;;;;;;;5.85;3.30;;;;;;;;;;6192787;28;20058;-80
2023/08/31 06:17:23;;;;;;;6.50;3.40;;;;;;;;;;6192839;28;20117;-78
2023/08/31 06:20:27;;;;;;;5.78;3.53;;;;;;;;;;6189334;28;20283;-78
2023/08/31 06:23:28;;;;;;;6.68;3.53;;;;;;;;;;6191153;28;20055;-78
2023/08/31 06:26:31;;;;;;;6.13;2.92;;;;;;;;;;6180512;28;20125;-79
2023/08/31 06:29:32;;;;;;;5.82;2.97;;;;;;;;;;6188304;28;20050;-78
2023/08/31 06:32:37;;;;;;;6.93;3.08;;;;;;;;;;6191182;28;20248;-78
2023/08/31 06:35:43;;;;;;;6.50;3.10;;;;;;;;;;6178851;28;20065;-80
2023/08/31 06:38:52;;;;;;;8.43;3.30;;;;;;;;;;6229934;28;20304;-83
2023/08/31 06:41:54;;;;;;;9.15;3.33;;;;;;;;;;6284085;28;20092;-83
2023/08/31 06:44:58;;;;;;;6.38;2.65;;;;;;;;;;6270717;28;20079;-83
2023/08/31 06:48:00;;;;;;;10.70;3.42;;;;;;;;;;6272342;28;20123;-80
2023/08/31 06:51:04;;;;;;;4.75;3.03;;;;;;;;;;6272644;28;20075;-80
2023/08/31 06:54:10;;;;;;;;;;;;;;;;;;6270573;28;20378;-80
2023/08/31 06:57:18;;;;;;;5.00;3.63;;;;;;;;;;6271884;28;20197;-80
2023/08/31 07:00:21;;;;;;;6.38;3.13;;;;;;;;;;6276388;28;20120;-80
2023/08/31 07:03:23;;;;;;;10.32;3.42;;;;;;;;;;6272186;28;20055;-79
2023/08/31 07:06:26;;;;;;;8.82;3.55;;;;;;;;;;6269797;28;20361;-80
2023/08/31 07:09:28;;;;;;;7.28;3.20;;;;;;;;;;6272430;28;20040;-81
2023/08/31 07:12:30;;;;;;;5.65;3.85;;;;;;;;;;6264145;28;20394;-81
2023/08/31 07:15:32;;;;;;;8.93;3.40;;;;;;;;;;6284380;28;20354;-80
2023/08/31 07:18:34;;;;;;;8.55;3.65;;;;;;;;;;6272032;28;20064;-80
2023/08/31 07:21:37;;;;;;;6.00;2.75;;;;;;;;;;6273598;28;20080;-80
2023/08/31 07:24:39;;;;;;;5.75;2.50;;;;;;;;;;6273338;28;20332;-80
2023/08/31 07:27:41;;;;;;;4.40;1.83;;;;;;;;;;6270303;28;20049;-80
2023/08/31 07:30:43;;;;;;;3.97;2.08;;;;;;;;;;6270725;28;20244;-81
2023/08/31 07:33:44;;;;;;;7.93;1.90;;;;;;;;;;6278096;28;20071;-79
2023/08/31 07:36:47;;;;;;;5.78;2.67;;;;;;;;;;6270726;28;20056;-80
2023/08/31 07:39:49;;;;;;;6.45;2.70;;;;;;;;;;6271188;28;20220;-80
2023/08/31 07:42:51;;;;;;;5.03;2.30;;;;;;;;;;6271508;28;20041;-80
2023/08/31 07:45:53;;;;;;;3.58;1.90;;;;;;;;;;6271457;28;20063;-80
2023/08/31 07:48:55;;;;;;;3.90;2.00;;;;;;;;;;6271984;28;20059;-80
2023/08/31 07:51:58;;;;;;;5.03;1.80;;;;;;;;;;6273472;28;20061;-80
2023/08/31 07:55:01;;;;;;;7.07;2.22;;;;;;;;;;6269969;28;20064;-79
2023/08/31 07:58:03;;;;;;;5.22;1.70;;;;;;;;;;6268828;28;20057;-81
2023/08/31 08:01:05;;;;;;;6.15;1.83;;;;;;;;;;6271519;28;20254;-80
2023/08/31 08:04:07;;;;;;;3.97;1.70;;;;;;;;;;6272692;28;20064;-82
2023/08/31 08:07:10;;;;;;;2.80;1.40;;;;;;;;;;6271385;28;20063;-81
2023/08/31 08:10:12;;;;;;;;;;;;;;;;;;6272051;28;20060;-80
2023/08/31 08:13:15;;;;;;;4.30;1.50;;;;;;;;;;6270339;28;19925;-79
2023/08/31 08:16:17;;;;;;;3.58;1.48;;;;;;;;;;6273680;28;20102;-80
2023/08/31 08:19:23;;;;;;;3.40;1.50;;;;;;;;;;6271258;28;20052;-80
2023/08/31 08:22:30;;;;;;;6.88;1.55;;;;;;;;;;6272038;28;20296;-80
2023/08/31 08:25:38;;;;;;;2.90;1.27;;;;;;;;;;6273558;28;20072;-81
2023/08/31 08:28:40;;;;;;;4.32;1.65;;;;;;;;;;6274324;28;20071;-80
2023/08/31 08:31:42;;;;;;;8.93;1.50;;;;;;;;;;6273716;28;20119;-81
2023/08/31 08:34:44;;;;;;;17.90;1.73;;;;;;;;;;6275263;28;20057;-81
2023/08/31 08:37:47;;;;;;;10.00;1.52;;;;;;;;;;6274529;28;20076;-81
2023/08/31 08:40:49;;;;;;;3.47;1.65;;;;;;;;;;6273298;28;20364;-81
2023/08/31 08:43:52;;;;;;;4.40;1.40;;;;;;;;;;6272474;28;20064;-80
2023/08/31 08:46:54;;;;;;;5.68;1.50;;;;;;;;;;6273357;28;20061;-80
2023/08/31 08:49:57;;;;;;;3.10;1.40;;;;;;;;;;6271412;28;20088;-81
2023/08/31 08:53:00;;;;;;;6.57;1.60;;;;;;;;;;6274225;28;20522;-78
2023/08/31 08:56:02;;;;;;;3.03;1.40;;;;;;;;;;6277312;28;20055;-77
2023/08/31 08:59:03;;;;;;;6.78;1.48;;;;;;;;;;6274359;28;20049;-77
2023/08/31 09:02:06;;;;;;;4.05;1.42;;;;;;;;;;6267222;28;20240;-82
2023/08/31 09:05:09;;;;;;;5.65;2.10;;;;;;;;;;6271041;28;20064;-79
2023/08/31 09:08:13;;;;;;;7.53;1.88;;;;;;;;;;6271479;28;20084;-81
2023/08/31 09:11:22;;;;;;;5.72;1.98;;;;;;;;;;6275108;28;20100;-82
2023/08/31 09:14:23;;;;;;;4.82;1.60;;;;;;;;;;6271459;28;20116;-83
2023/08/31 09:17:25;;;;;;;3.92;1.35;;;;;;;;;;6270945;28;20200;-83
2023/08/31 09:20:28;;;;;;;4.63;1.83;;;;;;;;;;6271099;28;20048;-83
2023/08/31 09:23:31;;;;;;;4.18;1.55;;;;;;;;;;6271216;28;20083;-84
2023/08/31 09:26:37;;;;;;;3.67;1.70;;;;;;;;;;6273445;28;20092;-83
2023/08/31 09:29:40;;;;;;;4.03;1.40;;;;;;;;;;6273078;28;20642;-83
2023/08/31 09:32:44;;;;;;;5.68;2.30;;;;;;;;;;6271104;28;20330;-83
2023/08/31 09:35:51;;;;;;;4.35;1.70;;;;;;;;;;6272974;28;20064;-83
2023/08/31 09:38:57;;;;;;;3.38;1.48;;;;;;;;;;6275169;28;20411;-82
2023/08/31 09:42:03;;;;;;;4.38;1.75;;;;;;;;;;6272538;28;20053;-83
2023/08/31 09:45:06;;;;;;;5.60;1.70;;;;;;;;;;6270828;28;20063;-84
2023/08/31 09:48:08;;;;;;;4.20;1.70;;;;;;;;;;6273254;28;20053;-83
2023/08/31 09:51:11;;;;;;;3.92;1.80;;;;;;;;;;6272293;28;20052;-81
2023/08/31 09:54:16;;;;;;;3.42;1.50;;;;;;;;;;6269994;28;20060;-84
2023/08/31 09:57:19;;;;;;;4.72;1.60;;;;;;;;;;6273112;28;20112;-83
2023/08/31 10:00:21;;;;;;;4.38;1.50;;;;;;;;;;6268976;28;20060;-83
2023/08/31 10:03:24;;;;;;;4.40;1.55;;;;;;;;;;6273690;28;20044;-83
2023/08/31 10:06:29;;;;;;;3.15;1.40;;;;;;;;;;6272174;28;20053;-85
2023/08/31 10:09:36;;;;;;;4.18;1.75;;;;;;;;;;6275422;28;20061;-80
2023/08/31 10:12:38;;;;;;;4.28;1.48;;;;;;;;;;6275039;28;20065;-84
2023/08/31 10:15:43;;;;;;;4.43;1.80;;;;;;;;;;6273717;28;20060;-84
2023/08/31 10:18:45;;;;;;;4.05;1.58;;;;;;;;;;6272074;28;20052;-83
2023/08/31 10:21:47;;;;;;;4.10;1.40;;;;;;;;;;6275553;28;20053;-83
2023/08/31 10:25:00;;;;;;;5.30;1.37;;;;;;;;;;6270019;28;20475;-84
2023/08/31 10:28:18;;;;;;;4.93;1.60;;;;;;;;;;6273908;28;20067;-85
2023/08/31 10:31:22;;;;;;;4.88;1.40;;;;;;;;;;6273336;28;20071;-85
2023/08/31 10:34:37;;;;;;;5.60;1.40;;;;;;;;;;6274277;28;20049;-84
2023/08/31 10:37:40;;;;;;;3.85;1.42;;;;;;;;;;6270603;28;20057;-84
2023/08/31 10:41:04;;;;;;;6.55;1.52;;;;;;;;;;6271757;28;20055;-83
2023/08/31 10:44:19;;;;;;;5.03;1.27;;;;;;;;;;6271344;28;20045;-84
2023/08/31 10:47:58;;;;;;;3.75;1.30;;;;;;;;;;6273407;28;20061;-83
2023/08/31 10:51:00;;;;;;;3.22;1.42;;;;;;;;;;6258233;28;20129;-84
2023/08/31 10:54:13;;;;;;;3.17;1.30;;;;;;;;;;6276110;28;20091;-84
2023/08/31 10:57:18;;;;;;;5.50;1.50;;;;;;;;;;6275681;28;20037;-85
2023/08/31 11:00:46;;;;;;;3.70;1.50;;;;;;;;;;6272129;28;20677;-78
2023/08/31 11:04:00;;;;;;;4.20;1.60;;;;;;;;;;6272328;28;20048;-79
2023/08/31 11:07:16;;;;;;;4.90;1.48;;;;;;;;;;6277382;28;20064;-78
2023/08/31 11:10:19;;;;;;;3.85;1.27;;;;;;;;;;6272517;28;21165;-79
2023/08/31 11:13:24;;;;;;;4.07;1.40;;;;;;;;;;6271168;28;20456;-79
2023/08/31 11:16:25;;;;;;;4.07;1.48;;;;;;;;;;6272984;28;20352;-78
2023/08/31 11:19:27;;;;;;;5.55;1.35;;;;;;;;;;6272455;28;20094;-79
2023/08/31 11:22:29;;;;;;;2.92;1.13;;;;;;;;;;6271308;28;20134;-79
2023/08/31 11:25:32;;;;;;;5.33;1.10;;;;;;;;;;6272561;28;20087;-79
2023/08/31 11:28:35;;;;;;;5.35;1.90;;;;;;;;;;6279072;28;20360;-79
2023/08/31 11:31:40;;;;;;;2.75;1.35;;;;;;;;;;6271611;28;20064;-84
2023/08/31 11:46:15;;;;;;;2.40;1.15;;;;;;;;;;6270201;28;20116;-83
2023/08/31 11:56:48;;;;;;;2.88;1.30;;;;;;;;;;6148558;28;20046;-76
2023/08/31 12:03:21;;;;;;;5.20;1.38;;;;;;;;;;6079290;29;20171;-76
2023/08/31 12:06:25;;;;;;;2.65;1.30;;;;;;;;;;6079765;29;20063;-76
2023/08/31 12:09:29;;;;;;;2.80;1.30;;;;;;;;;;6079521;29;20386;-76
2023/08/31 12:12:40;;;;;;;2.30;1.10;;;;;;;;;;6070322;29;20087;-76
2023/08/31 12:23:03;;;;;;;2.80;1.10;;;;;;;;;;6081614;29;20060;-76
2023/08/31 12:26:08;;;;;;;4.53;1.50;;;;;;;;;;6080494;29;20341;-76
2023/08/31 12:29:28;;;;;;;7.78;1.40;;;;;;;;;;6079251;29;20337;-76
2023/08/31 12:32:34;;;;;;;4.18;1.40;;;;;;;;;;6100574;28;20090;-76
2023/08/31 12:35:37;;;;;;;5.15;1.77;;;;;;;;;;6181462;28;20046;-76
2023/08/31 12:38:38;;;;;;;4.63;1.17;;;;;;;;;;6225183;28;20154;-76
2023/08/31 12:41:42;;;;;;;3.40;1.08;;;;;;;;;;6277732;28;20124;-76
2023/08/31 12:44:46;;;;;;;2.20;1.20;;;;;;;;;;6288914;28;20069;-76
2023/08/31 12:47:48;;;;;;;2.25;0.90;;;;;;;;;;6275111;28;20061;-76
2023/08/31 13:02:54;;;;;;;;;;;;;;;;;;;;;
2023/08/31 13:06:49;;;;;;;4.95;1.10;;;;;;;;;;6192987;28;20144;-76
2023/08/31 13:10:11;;;;;;;3.08;1.00;;;;;;;;;;6132100;28;20047;-76
2023/08/31 13:16:51;;;;;;;2.30;1.00;;;;;;;;;;6189359;28;20054;-78
2023/08/31 13:20:26;;;;;;;4.25;1.30;;;;;;;;;;6199736;28;20303;-78
2023/08/31 13:27:02;;;;;;;2.83;0.90;;;;;;;;;;6175075;28;20119;-77
2023/08/31 13:30:05;;;;;;;1.40;0.75;;;;;;;;;;6196878;28;20417;-77
2023/08/31 13:33:07;;;;;;;2.47;1.10;;;;;;;;;;6196592;28;20046;-79
2023/08/31 13:36:09;;;;;;;3.40;1.40;;;;;;;;;;6201867;28;20370;-79
2023/08/31 13:39:11;;;;;;;2.70;1.13;;;;;;;;;;6201364;28;20068;-80
2023/08/31 13:42:14;;;;;;;4.13;1.00;;;;;;;;;;6245388;28;20056;-79
2023/08/31 13:45:20;;;;;;;2.53;0.88;;;;;;;;;;6299885;28;20455;-78
2023/08/31 13:48:25;;;;;;;4.68;1.05;;;;;;;;;;6296431;28;20051;-78
2023/08/31 13:54:42;;;;;;;1.92;0.88;;;;;;;;;;6286687;28;20121;-78
2023/08/31 13:57:45;;;;;;;1.88;0.90;;;;;;;;;;6296866;28;20052;-78
2023/08/31 14:00:47;;;;;;;3.58;1.30;;;;;;;;;;6298623;28;20051;-78
2023/08/31 14:03:49;;;;;;;2.08;1.10;;;;;;;;;;6299201;28;20052;-79
2023/08/31 14:06:54;;;;;;;3.97;0.90;;;;;;;;;;6300510;28;20154;-78
2023/08/31 14:09:56;;;;;;;1.52;0.90;;;;;;;;;;6303359;28;20103;-78
2023/08/31 14:12:59;;;;;;;2.13;0.88;;;;;;;;;;6299337;28;20110;-78
2023/08/31 14:16:01;;;;;;;2.58;1.00;;;;;;;;;;6301559;28;20151;-77
2023/08/31 14:19:04;;;;;;;3.38;1.13;;;;;;;;;;6298912;28;20049;-80
2023/08/31 14:22:54;;;;;;;6.80;1.25;;;;;;;;;;6296828;28;20059;-78
2023/08/31 14:25:55;;;;;;;3.58;1.15;;;;;;;;;;6222539;28;20249;-78
2023/08/31 14:28:59;;;;;;;8.25;1.50;;;;;;;;;;6223514;28;20045;-78
2023/08/31 14:32:04;;;;;;;4.65;1.63;;;;;;;;;;6223298;28;20479;-78
2023/08/31 14:35:07;;;;;;;2.63;1.20;;;;;;;;;;6223817;28;20070;-79
2023/08/31 14:38:12;;;;;;;3.60;1.20;;;;;;;;;;6221244;28;20330;-78
2023/08/31 14:41:14;;;;;;;5.78;1.20;;;;;;;;;;6225774;28;21021;-79
2023/08/31 14:44:17;;;;;;;2.10;1.23;;;;;;;;;;6222438;28;20409;-78
2023/08/31 14:47:18;;;;;;;3.22;1.05;;;;;;;;;;6204202;28;20461;-78
2023/08/31 14:50:21;;;;;;;4.68;1.27;;;;;;;;;;6207337;28;20060;-80
2023/08/31 14:53:23;;;;;;;3.40;1.30;;;;;;;;;;6205936;28;20065;-81
2023/08/31 14:56:29;;;;;;;3.35;1.38;;;;;;;;;;6191976;28;20069;-79
2023/08/31 14:59:34;;;;;;;2.53;1.30;;;;;;;;;;6225000;28;20296;-80
2023/08/31 15:02:36;;;;;;;2.53;1.25;;;;;;;;;;6289517;28;20049;-79
2023/08/31 15:05:38;;;;;;;3.10;1.08;;;;;;;;;;6301262;28;20062;-78
2023/08/31 15:08:41;;;;;;;2.28;1.30;;;;;;;;;;6277627;28;20325;-78
2023/08/31 15:11:44;;;;;;;3.33;1.35;;;;;;;;;;6298128;28;20064;-78
2023/08/31 15:14:47;;;;;;;2.30;0.90;;;;;;;;;;6295741;28;20335;-78
2023/08/31 15:17:49;;;;;;;4.05;1.17;;;;;;;;;;6297644;28;20121;-78
2023/08/31 15:20:51;;;;;;;5.18;1.20;;;;;;;;;;6300674;28;20352;-78
2023/08/31 15:23:57;;;;;;;2.42;1.00;;;;;;;;;;6299776;28;20052;-80
2023/08/31 15:30:23;;;;;;;3.75;1.00;;;;;;;;;;6295252;28;20110;-81
2023/08/31 15:33:25;;;;;;;2.78;1.38;;;;;;;;;;6289523;28;20052;-81
2023/08/31 15:36:27;;;;;;;3.15;1.40;;;;;;;;;;6300357;28;20040;-80
2023/08/31 15:39:28;;;;;;;3.10;1.40;;;;;;;;;;6286617;28;20053;-79
2023/08/31 15:42:30;;;;;;;2.75;1.10;;;;;;;;;;6299454;28;20241;-78
2023/08/31 15:45:33;;;;;;;2.30;1.35;;;;;;;;;;6303468;28;20044;-79
2023/08/31 15:48:35;;;;;;;;;;;;;;;;;;6303503;28;20058;-84
2023/08/31 15:51:37;;;;;;;3.83;1.30;;;;;;;;;;6299992;28;19940;-80
2023/08/31 15:54:39;;;;;;;68.30;6.53;;;;;;;;;;6303128;28;20056;-80
2023/08/31 15:57:41;;;;;;;5.70;1.67;;;;;;;;;;6296869;28;20056;-78
2023/08/31 16:00:44;;;;;;;6.07;1.83;;;;;;;;;;6297820;28;20130;-79
2023/08/31 16:03:46;;;;;;;2.83;1.50;;;;;;;;;;6299065;28;20386;-79
2023/08/31 16:06:48;;;;;;;5.13;1.90;;;;;;;;;;6296791;28;20119;-78
2023/08/31 16:09:51;;;;;;;4.07;1.70;;;;;;;;;;6298200;28;20150;-79
2023/08/31 16:12:52;;;;;;;;;;;;;;;;;;6292851;28;20162;-77
2023/08/31 16:15:56;;;;;;;3.67;1.50;;;;;;;;;;6294962;28;19959;-80
2023/08/31 16:18:58;;;;;;;4.53;1.70;;;;;;;;;;6295519;28;20083;-79
2023/08/31 16:21:59;;;;;;;6.60;1.92;;;;;;;;;;6300241;28;20076;-79
2023/08/31 16:25:01;;;;;;;6.22;2.00;;;;;;;;;;6296741;28;20055;-81
2023/08/31 16:28:04;;;;;;;5.57;1.70;;;;;;;;;;6298009;28;20060;-79
2023/08/31 16:31:08;;;;;;;4.07;1.80;;;;;;;;;;6298193;28;20201;-80
2023/08/31 16:34:10;;;;;;;11.45;2.17;;;;;;;;;;6296960;28;20058;-79
2023/08/31 16:37:12;;;;;;;5.72;2.10;;;;;;;;;;6299076;28;20049;-79
2023/08/31 16:40:14;;;;;;;3.38;1.80;;;;;;;;;;6296630;28;20098;-79
2023/08/31 16:43:16;;;;;;;4.93;1.80;;;;;;;;;;6299797;28;20044;-79
2023/08/31 16:46:20;;;;;;;3.60;1.75;;;;;;;;;;6302712;28;20355;-79
2023/08/31 16:49:21;;;;;;;6.35;2.20;;;;;;;;;;6304996;28;20056;-79
2023/08/31 16:52:24;;;;;;;3.15;2.10;;;;;;;;;;6302912;28;20120;-79
2023/08/31 16:55:26;;;;;;;5.75;2.10;;;;;;;;;;6302266;28;20063;-79
2023/08/31 16:58:28;;;;;;;5.15;1.90;;;;;;;;;;6302982;28;20055;-79
2023/08/31 17:01:32;;;;;;;4.20;2.20;;;;;;;;;;6301626;28;20669;-79
2023/08/31 17:04:33;;;;;;;4.28;1.73;;;;;;;;;;6300936;28;20053;-79
2023/08/31 17:07:35;;;;;;;5.68;1.70;;;;;;;;;;6305057;28;20151;-79
2023/08/31 17:10:39;;;;;;;3.58;1.48;;;;;;;;;;6298594;28;20331;-79
2023/08/31 17:13:42;;;;;;;4.53;1.90;;;;;;;;;;6303501;28;20044;-80
2023/08/31 17:16:45;;;;;;;3.58;1.88;;;;;;;;;;6301328;28;20056;-79
2023/08/31 17:19:50;;;;;;;;;;;;;;;;;;6299196;28;20347;-80
2023/08/31 17:22:51;;;;;;;2.63;1.63;;;;;;;;;;6301961;28;20141;-79
2023/08/31 17:25:53;;;;;;;5.93;1.70;;;;;;;;;;6301769;28;20058;-79
2023/08/31 17:28:55;;;;;;;5.72;1.80;;;;;;;;;;6281151;28;20250;-79
2023/08/31 17:31:58;;;;;;;4.97;2.10;;;;;;;;;;6302299;28;20060;-79
2023/08/31 17:35:03;;;;;;;;;;;;;;;;;;6300624;28;20349;-79
2023/08/31 17:38:05;;;;;;;3.95;1.85;;;;;;;;;;6301748;28;20456;-80
2023/08/31 17:41:07;;;;;;;4.95;1.67;;;;;;;;;;6303186;28;20041;-80
2023/08/31 17:44:09;;;;;;;2.75;1.58;;;;;;;;;;6303477;28;20063;-80
2023/08/31 17:47:12;;;;;;;5.28;2.20;;;;;;;;;;6301841;28;20124;-80
2023/08/31 17:50:14;;;;;;;3.70;2.20;;;;;;;;;;6300696;28;20051;-80
2023/08/31 17:53:17;;;;;;;4.13;1.80;;;;;;;;;;6301589;28;20059;-80
2023/08/31 17:56:19;;;;;;;3.50;1.90;;;;;;;;;;6297847;28;20056;-79
2023/08/31 17:59:21;;;;;;;6.95;1.88;;;;;;;;;;6300103;28;20052;-80
2023/08/31 18:02:24;;;;;;;4.80;1.90;;;;;;;;;;6303399;28;20140;-80
2023/08/31 18:05:26;;;;;;;;;;;;;;;;;;6301969;28;20056;-79
2023/08/31 18:08:28;;;;;;;4.28;1.83;;;;;;;;;;6299267;28;19916;-79
2023/08/31 18:11:30;;;;;;;5.30;2.15;;;;;;;;;;6298682;28;20048;-79
2023/08/31 18:14:31;;;;;;;5.50;1.77;;;;;;;;;;6301518;28;20052;-80
2023/08/31 18:17:35;;;;;;;3.85;1.85;;;;;;;;;;6299377;28;20041;-79
2023/08/31 18:20:37;;;;;;;5.20;2.00;;;;;;;;;;6296757;28;20056;-79
2023/08/31 18:23:40;;;;;;;6.10;1.80;;;;;;;;;;6294668;28;20066;-79
2023/08/31 18:26:42;;;;;;;5.00;2.05;;;;;;;;;;6297100;28;20103;-79
2023/08/31 18:29:45;;;;;;;5.88;1.75;;;;;;;;;;6297764;28;20052;-80
2023/08/31 18:32:48;;;;;;;3.80;1.70;;;;;;;;;;6295278;28;20147;-82
2023/08/31 18:35:51;;;;;;;;;;;;;;;;;;6295934;28;20054;-81
2023/08/31 18:38:53;;;;;;;6.60;2.10;;;;;;;;;;6295384;28;19925;-80
2023/08/31 18:41:55;;;;;;;4.82;1.88;;;;;;;;;;6296363;28;20292;-81
2023/08/31 18:44:56;;;;;;;3.72;1.80;;;;;;;;;;6294692;28;20060;-80
2023/08/31 18:48:00;;;;;;;3.60;1.88;;;;;;;;;;6298946;28;20044;-81
2023/08/31 18:51:02;;;;;;;6.78;2.38;;;;;;;;;;6294447;28;20083;-81
2023/08/31 18:54:05;;;;;;;4.07;1.77;;;;;;;;;;6278483;28;20099;-80
2023/08/31 18:57:07;;;;;;;5.93;2.25;;;;;;;;;;6299742;28;20264;-84
2023/08/31 19:00:12;;;;;;;5.95;1.95;;;;;;;;;;6292756;28;20071;-81
2023/08/31 19:03:16;;;;;;;5.22;2.20;;;;;;;;;;6293835;28;20056;-85
2023/08/31 19:06:18;;;;;;;6.13;1.80;;;;;;;;;;6293552;28;20063;-81
2023/08/31 19:09:20;;;;;;;4.25;1.70;;;;;;;;;;6295138;28;20374;-84
2023/08/31 19:12:21;;;;;;;6.45;1.85;;;;;;;;;;6295620;28;20336;-82
2023/08/31 19:15:23;;;;;;;4.63;2.20;;;;;;;;;;6296511;28;20060;-83
2023/08/31 19:18:26;;;;;;;4.32;2.33;;;;;;;;;;6294341;28;23195;-82
2023/08/31 19:21:28;;;;;;;4.95;1.88;;;;;;;;;;6296218;28;20048;-83
2023/08/31 19:24:30;;;;;;;5.68;2.30;;;;;;;;;;6293152;28;20101;-84